Etusivu
METAR-TAF:

METAR-TAF

Lentoasemat :

Georgetown Municipal Airport

Georgetown, Texas, Yhdysvallat

Leveyspiiri: 30-41N, Pituuspiiri: 097-41W, korkeus merenpinnasta: 240 m

Tämänhetkinen sää

Tämä raportti tehtiin 35 minuuttia sitten, kello 16.56 UTC
Tuuli 14 kn etelästä puuskistuen 19 kn:hen
Lämpötila 31°C
Kosteus 66%
Ilmanpaine 1011 hPa
Näkyvyys: 16.1 km
Hajanaisia pilviä 2400 ft:n korkeudessa

METAR: KGTU 201656Z 18014G19KT 10SM SCT024 31/24 A2986 RMK AO2 SLP103 T03110239

Aika: 12:31 (17:31 UTC)


TAF: puuttuu

Säähavainnot ja -ennusteet yli 4000 lentoasemalta (METAR- ja TAF-raportit).

Käytössä olevat sääasemat on merkitty karttaan keltaisilla ja punaisilla pisteillä.

Aseta hiiri pisteen päälle nähdäksesi sääaseman nimen.

Klikkaa sitten nähdäksesi säähavainnot ja -ennusteet.

Kartan vaihtaminen: klikkaa mustalla rastilla varustettuja vihreitä pisteitä, niin voit zoomata sisään; viivalla varustettua vihreää pistettä, niin voit zoomata ulos tai vihreitä nuolia, niin pääset viereisille kartoille.


METAR-TAF: